createdAt,value
2022-12-18T00:00:59.273Z,73.34
2022-12-18T00:04:26.177Z,73.48
2022-12-18T00:07:47.778Z,74.35
2022-12-18T00:11:14.332Z,73.99
2022-12-18T00:14:38.299Z,73.47
2022-12-18T00:18:03.701Z,73.56
2022-12-18T00:21:28.840Z,73.54
2022-12-18T00:24:50.386Z,73.93
2022-12-18T00:28:11.962Z,73.25
2022-12-18T00:31:34.320Z,73.85
2022-12-18T00:34:55.919Z,73.07
2022-12-18T00:38:17.474Z,74.57
2022-12-18T00:41:59.914Z,75.20
2022-12-18T00:45:21.426Z,75.48
2022-12-18T00:48:43.473Z,74.45
2022-12-18T00:52:07.448Z,73.92
2022-12-18T00:55:29.025Z,74.06
2022-12-18T00:58:50.974Z,73.55
2022-12-18T01:02:14.944Z,74.16
2022-12-18T01:05:41.170Z,74.95
2022-12-18T01:09:05.376Z,74.51
2022-12-18T01:12:27.089Z,75.50
2022-12-18T01:15:52.366Z,74.81
2022-12-18T01:19:16.277Z,74.69
2022-12-18T01:22:40.644Z,73.84
2022-12-18T01:26:14.421Z,73.14
2022-12-18T01:29:36.055Z,73.56
2022-12-18T01:32:57.659Z,74.45
2022-12-18T01:36:25.316Z,74.42
2022-12-18T01:39:46.877Z,74.15
2022-12-18T01:43:10.299Z,74.26
2022-12-18T01:46:31.835Z,74.12
2022-12-18T01:49:55.638Z,74.36
2022-12-18T01:53:21.892Z,75.00
2022-12-18T01:56:43.567Z,74.14
2022-12-18T02:00:12.189Z,74.13
2022-12-18T02:03:33.931Z,73.23
2022-12-18T02:07:15.740Z,73.38
2022-12-18T02:10:48.621Z,74.14
2022-12-18T02:14:13.027Z,73.73
2022-12-18T02:17:41.297Z,73.47
2022-12-18T02:21:13.808Z,73.69
2022-12-18T02:24:52.341Z,74.50
2022-12-18T02:28:17.207Z,73.94
2022-12-18T02:31:48.072Z,74.53
2022-12-18T02:35:24.397Z,74.02
2022-12-18T02:38:47.662Z,74.15
2022-12-18T02:42:09.730Z,74.93
2022-12-18T02:45:33.750Z,74.77
2022-12-18T02:49:02.660Z,74.91
2022-12-18T02:52:45.659Z,75.17
2022-12-18T02:56:13.230Z,74.74
2022-12-18T02:59:55.213Z,74.81
2022-12-18T03:03:40.245Z,75.12
2022-12-18T03:07:06.167Z,75.09
2022-12-18T03:10:32.001Z,75.25
2022-12-18T03:13:58.232Z,74.56
2022-12-18T03:17:21.897Z,74.38
2022-12-18T03:20:45.508Z,74.49
2022-12-18T03:24:09.661Z,74.99
2022-12-18T03:27:34.060Z,74.06
2022-12-18T03:30:58.730Z,75.04
2022-12-18T03:34:32.461Z,75.58
2022-12-18T03:37:54.046Z,75.81
2022-12-18T03:41:23.948Z,75.53
2022-12-18T03:45:02.438Z,75.35
2022-12-18T03:48:42.847Z,76.78
2022-12-18T03:52:18.063Z,76.35
2022-12-18T03:55:40.398Z,76.36
2022-12-18T03:59:03.679Z,76.78
2022-12-18T04:02:26.326Z,77.14
2022-12-18T04:05:51.416Z,77.58
2022-12-18T04:09:13.420Z,78.03
2022-12-18T04:12:34.943Z,78.18
2022-12-18T04:15:56.671Z,77.47
2022-12-18T04:19:20.940Z,78.17
2022-12-18T04:22:44.629Z,78.31
2022-12-18T04:26:08.968Z,78.28
2022-12-18T04:29:30.587Z,78.04
2022-12-18T04:32:52.546Z,77.74
2022-12-18T04:36:16.631Z,77.46
2022-12-18T04:39:40.875Z,78.09
2022-12-18T04:43:02.583Z,78.19
2022-12-18T04:46:24.214Z,77.46
2022-12-18T04:49:45.838Z,78.38
2022-12-18T04:53:09.858Z,78.14
2022-12-18T04:56:33.102Z,77.54
2022-12-18T04:59:56.903Z,77.20
2022-12-18T05:03:18.464Z,77.79
2022-12-18T05:06:42.739Z,77.10
2022-12-18T05:10:07.826Z,77.37
2022-12-18T05:13:29.684Z,77.71
2022-12-18T05:17:00.688Z,77.24
2022-12-18T05:20:22.913Z,78.00
2022-12-18T05:23:44.658Z,78.00
2022-12-18T05:27:06.272Z,77.10
2022-12-18T05:30:28.620Z,78.38
2022-12-18T05:33:50.204Z,77.24
2022-12-18T05:37:11.758Z,77.76
2022-12-18T05:40:33.348Z,78.08
2022-12-18T05:43:54.896Z,78.69
2022-12-18T05:47:16.420Z,78.72
2022-12-18T05:50:39.153Z,79.49
2022-12-18T05:54:03.059Z,78.79
2022-12-18T05:57:25.274Z,77.19
2022-12-18T06:00:47.404Z,76.00
2022-12-18T06:04:09.062Z,77.07
2022-12-18T06:07:30.762Z,77.91
2022-12-18T06:10:56.284Z,78.65
2022-12-18T06:14:18.256Z,78.90
2022-12-18T06:17:42.324Z,78.55
2022-12-18T06:21:04.037Z,78.27
2022-12-18T06:24:25.627Z,79.35
2022-12-18T06:27:48.710Z,79.45
2022-12-18T06:31:11.208Z,79.92
2022-12-18T06:34:33.473Z,79.68
2022-12-18T06:37:55.070Z,80.39
2022-12-18T06:41:21.389Z,79.98
2022-12-18T06:44:42.961Z,80.36
2022-12-18T06:48:07.342Z,79.98
2022-12-18T06:51:29.041Z,79.88
2022-12-18T06:54:53.318Z,79.14
2022-12-18T06:58:15.033Z,78.17
2022-12-18T07:01:36.890Z,77.53
2022-12-18T07:04:58.552Z,77.25
2022-12-18T07:08:20.195Z,78.28
2022-12-18T07:11:43.986Z,78.52
2022-12-18T07:15:06.125Z,78.78
2022-12-18T07:18:27.688Z,78.74
2022-12-18T07:21:52.277Z,78.08
2022-12-18T07:25:13.852Z,78.76
2022-12-18T07:28:36.551Z,78.33
2022-12-18T07:31:58.221Z,78.10
2022-12-18T07:35:24.734Z,78.32
2022-12-18T07:38:50.780Z,79.17
2022-12-18T07:42:31.303Z,78.80
2022-12-18T07:45:52.997Z,79.37
2022-12-18T07:49:14.557Z,78.86
2022-12-18T07:52:36.370Z,78.01
2022-12-18T07:56:25.445Z,75.40
2022-12-18T07:59:40.614Z,73.89
2022-12-18T08:03:02.841Z,72.97
2022-12-18T08:06:24.943Z,71.98
2022-12-18T08:09:48.752Z,70.69
2022-12-18T08:13:12.572Z,69.86
2022-12-18T08:16:37.269Z,67.77
2022-12-18T08:19:58.861Z,67.36
2022-12-18T08:23:20.740Z,65.84
2022-12-18T08:26:45.573Z,63.93
2022-12-18T08:30:16.773Z,61.84
2022-12-18T08:33:40.331Z,62.71
2022-12-18T08:37:05.377Z,62.10
2022-12-18T08:40:27.122Z,60.20
2022-12-18T08:44:07.274Z,56.93
2022-12-18T08:47:28.859Z,54.44
2022-12-18T08:51:00.537Z,54.39
2022-12-18T08:54:22.197Z,53.41
2022-12-18T08:57:52.610Z,51.36
2022-12-18T09:01:17.079Z,51.65
2022-12-18T09:04:38.898Z,51.68
2022-12-18T09:08:00.472Z,53.78
2022-12-18T09:11:25.337Z,53.43
2022-12-18T09:14:46.887Z,53.67
2022-12-18T09:18:08.454Z,53.46
2022-12-18T09:21:36.989Z,51.63
2022-12-18T09:25:01.506Z,52.34
2022-12-18T09:28:23.093Z,50.66
2022-12-18T09:31:44.656Z,52.34
2022-12-18T09:35:06.471Z,52.89
2022-12-18T09:38:30.093Z,56.98
2022-12-18T09:41:54.729Z,56.23
2022-12-18T09:45:19.750Z,56.64
2022-12-18T09:48:45.393Z,54.91
2022-12-18T09:52:30.971Z,54.40
2022-12-18T09:55:55.336Z,52.98
2022-12-18T09:59:28.394Z,50.18
2022-12-18T10:02:57.632Z,50.38
2022-12-18T10:07:09.142Z,48.15
2022-12-18T10:10:54.072Z,44.24
2022-12-18T10:14:18.187Z,42.55
2022-12-18T10:17:56.379Z,41.36
2022-12-18T10:21:23.068Z,40.96
2022-12-18T10:24:54.308Z,38.77
2022-12-18T10:28:20.374Z,37.55
2022-12-18T10:31:42.135Z,35.67
2022-12-18T10:35:05.976Z,36.66
2022-12-18T10:38:30.832Z,37.53
2022-12-18T10:41:52.941Z,36.39
2022-12-18T10:45:18.522Z,33.95
2022-12-18T10:48:42.254Z,33.49
2022-12-18T10:52:17.064Z,35.49
2022-12-18T10:55:40.852Z,35.47
2022-12-18T10:59:14.858Z,35.62
2022-12-18T11:02:39.774Z,40.96
2022-12-18T11:06:06.205Z,38.18
2022-12-18T11:09:34.987Z,35.60
2022-12-18T11:12:56.878Z,33.95
2022-12-18T11:16:21.739Z,30.60
2022-12-18T11:19:43.523Z,32.00
2022-12-18T11:23:15.212Z,30.90
2022-12-18T11:26:37.244Z,30.89
2022-12-18T11:30:23.282Z,33.07
2022-12-18T11:34:19.721Z,30.64
2022-12-18T11:37:33.923Z,30.02
2022-12-18T11:41:14.697Z,30.32
2022-12-18T11:44:54.918Z,31.41
2022-12-18T11:48:28.205Z,32.02
2022-12-18T11:52:15.198Z,29.50
2022-12-18T11:55:48.753Z,28.68
2022-12-18T11:59:26.904Z,28.67
2022-12-18T12:03:13.986Z,30.34
2022-12-18T12:07:12.962Z,28.28
2022-12-18T12:11:02.206Z,31.26
2022-12-18T12:14:39.519Z,30.47
2022-12-18T12:18:23.018Z,29.38
2022-12-18T12:21:54.759Z,29.80
2022-12-18T12:25:41.645Z,30.17
2022-12-18T12:29:45.140Z,31.86
2022-12-18T12:33:13.937Z,30.31
2022-12-18T12:36:38.480Z,32.46
2022-12-18T12:40:15.261Z,33.43
2022-12-18T12:43:51.024Z,32.79
2022-12-18T12:47:19.479Z,31.89
2022-12-18T12:50:42.179Z,31.90
2022-12-18T12:54:12.159Z,32.31
2022-12-18T12:57:43.898Z,31.33
2022-12-18T13:01:19.981Z,29.55
2022-12-18T13:05:01.424Z,30.12
2022-12-18T13:08:30.936Z,30.20
2022-12-18T13:12:22.207Z,30.92
2022-12-18T13:16:04.068Z,33.27
2022-12-18T13:19:30.378Z,36.14
2022-12-18T13:22:52.447Z,37.90
2022-12-18T13:26:28.619Z,40.32
2022-12-18T13:29:52.849Z,41.42
2022-12-18T13:33:14.345Z,43.52
2022-12-18T13:36:38.435Z,43.84
2022-12-18T13:40:00.081Z,45.48
2022-12-18T13:43:21.581Z,45.44
2022-12-18T13:46:51.576Z,47.15
2022-12-18T13:50:35.876Z,47.04
2022-12-18T13:54:01.670Z,47.49
2022-12-18T13:57:31.571Z,48.24
2022-12-18T14:00:55.713Z,49.53
2022-12-18T14:04:30.020Z,50.10
2022-12-18T14:07:55.597Z,50.59
2022-12-18T14:11:23.846Z,50.59
2022-12-18T14:14:51.579Z,51.02
2022-12-18T14:18:27.931Z,51.69
2022-12-18T14:21:53.673Z,50.70
2022-12-18T14:25:16.088Z,70.90
2022-12-18T14:28:45.179Z,67.49
2022-12-18T14:32:24.295Z,63.55
2022-12-18T14:36:01.631Z,58.42
2022-12-18T14:39:26.539Z,59.26
2022-12-18T14:42:49.001Z,50.46
2022-12-18T14:46:32.235Z,51.29
2022-12-18T14:49:53.818Z,52.98
2022-12-18T14:53:32.559Z,53.52
2022-12-18T14:57:22.070Z,54.10
2022-12-18T15:00:43.861Z,55.17
2022-12-18T15:04:25.814Z,55.56
2022-12-18T15:07:53.225Z,55.91
2022-12-18T15:11:34.843Z,57.04
2022-12-18T15:14:56.416Z,57.94
2022-12-18T15:18:25.585Z,58.88
2022-12-18T15:21:47.635Z,59.95
2022-12-18T15:25:31.596Z,60.13
2022-12-18T15:28:53.209Z,84.30
2022-12-18T15:32:20.948Z,72.12
2022-12-18T15:35:47.403Z,72.73
2022-12-18T15:39:14.176Z,75.09
2022-12-18T15:42:54.079Z,72.09
2022-12-18T15:46:17.119Z,68.37
2022-12-18T15:49:38.770Z,68.13
2022-12-18T15:53:00.413Z,61.02
2022-12-18T15:56:40.958Z,61.86
2022-12-18T16:00:02.586Z,62.60
2022-12-18T16:03:24.170Z,62.70
2022-12-18T16:07:13.434Z,62.06
2022-12-18T16:10:28.224Z,63.42
2022-12-18T16:13:52.468Z,64.21
2022-12-18T16:17:17.507Z,65.63
2022-12-18T16:20:39.571Z,65.69
2022-12-18T16:24:04.402Z,65.54
2022-12-18T16:27:28.397Z,77.55
2022-12-18T16:30:49.992Z,76.13
2022-12-18T16:34:18.840Z,74.66
2022-12-18T16:37:41.651Z,74.15
2022-12-18T16:41:30.209Z,73.99
2022-12-18T16:44:53.839Z,73.27
2022-12-18T16:48:17.713Z,73.67
2022-12-18T16:51:39.775Z,73.43
2022-12-18T16:55:01.365Z,74.88
2022-12-18T16:58:23.199Z,65.79
2022-12-18T17:01:44.807Z,65.38
2022-12-18T17:05:09.177Z,65.60
2022-12-18T17:08:33.715Z,64.88
2022-12-18T17:11:56.338Z,66.06
2022-12-18T17:15:23.137Z,68.32
2022-12-18T17:18:45.030Z,68.91
2022-12-18T17:22:08.169Z,69.25
2022-12-18T17:25:32.560Z,68.37
2022-12-18T17:28:57.456Z,79.60
2022-12-18T17:32:21.620Z,78.98
2022-12-18T17:35:43.131Z,76.31
2022-12-18T17:39:07.044Z,77.16
2022-12-18T17:42:28.602Z,76.01
2022-12-18T17:45:53.690Z,77.65
2022-12-18T17:49:16.410Z,76.07
2022-12-18T17:52:40.723Z,75.69
2022-12-18T17:56:05.609Z,67.17
2022-12-18T17:59:27.304Z,67.02
2022-12-18T18:02:49.148Z,67.52
2022-12-18T18:06:11.051Z,68.09
2022-12-18T18:09:33.930Z,68.75
2022-12-18T18:13:16.706Z,70.07
2022-12-18T18:16:45.466Z,69.43
2022-12-18T18:20:07.808Z,69.66
2022-12-18T18:23:34.107Z,69.92
2022-12-18T18:26:55.855Z,69.66
2022-12-18T18:30:17.444Z,69.85
2022-12-18T18:33:42.006Z,70.56
2022-12-18T18:37:03.928Z,71.45
2022-12-18T18:40:25.494Z,84.80
2022-12-18T18:43:54.654Z,82.25
2022-12-18T18:47:18.606Z,80.19
2022-12-18T18:50:40.189Z,78.94
2022-12-18T18:54:04.241Z,79.54
2022-12-18T18:57:30.462Z,77.43
2022-12-18T19:01:14.620Z,69.61
2022-12-18T19:04:45.793Z,70.08
2022-12-18T19:08:10.898Z,71.22
2022-12-18T19:11:51.234Z,70.83
2022-12-18T19:15:13.715Z,71.87
2022-12-18T19:18:37.925Z,79.04
2022-12-18T19:21:59.906Z,82.47
2022-12-18T19:25:40.492Z,81.05
2022-12-18T19:29:08.787Z,77.12
2022-12-18T19:32:31.446Z,78.71
2022-12-18T19:35:53.259Z,78.69
2022-12-18T19:39:17.253Z,78.23
2022-12-18T19:42:41.318Z,77.55
2022-12-18T19:46:07.225Z,78.16
2022-12-18T19:49:28.877Z,78.01
2022-12-18T19:52:51.184Z,78.19
2022-12-18T19:56:15.531Z,77.93
2022-12-18T19:59:42.032Z,80.28
2022-12-18T20:03:16.026Z,77.98
2022-12-18T20:06:51.710Z,70.08
2022-12-18T20:10:16.014Z,69.59
2022-12-18T20:13:40.375Z,68.73
2022-12-18T20:17:02.116Z,70.93
2022-12-18T20:20:28.419Z,71.34
2022-12-18T20:23:50.389Z,70.53
2022-12-18T20:27:16.131Z,73.13
2022-12-18T20:30:42.726Z,71.84
2022-12-18T20:34:06.116Z,83.92
2022-12-18T20:37:28.730Z,83.83
2022-12-18T20:40:53.618Z,85.71
2022-12-18T20:44:21.586Z,86.26
2022-12-18T20:47:45.315Z,78.50
2022-12-18T20:51:12.105Z,78.41
2022-12-18T20:54:33.669Z,69.65
2022-12-18T20:57:58.169Z,69.73
2022-12-18T21:01:23.193Z,69.07
2022-12-18T21:04:44.867Z,70.71
2022-12-18T21:08:06.598Z,73.42
2022-12-18T21:11:49.221Z,73.20
2022-12-18T21:15:13.370Z,71.26
2022-12-18T21:18:37.297Z,70.86
2022-12-18T21:21:59.019Z,70.75
2022-12-18T21:25:20.687Z,71.38
2022-12-18T21:28:45.162Z,71.98
2022-12-18T21:32:09.590Z,73.14
2022-12-18T21:35:32.148Z,74.18
2022-12-18T21:38:54.471Z,74.29
2022-12-18T21:42:35.355Z,74.95
2022-12-18T21:45:56.961Z,73.10
2022-12-18T21:49:24.360Z,72.52
2022-12-18T21:52:45.898Z,74.07
2022-12-18T21:56:07.532Z,74.25
2022-12-18T21:59:40.248Z,72.85
2022-12-18T22:03:17.338Z,73.90
2022-12-18T22:06:41.630Z,73.88
2022-12-18T22:10:03.435Z,74.84
2022-12-18T22:13:24.997Z,73.95
2022-12-18T22:16:49.593Z,74.40
2022-12-18T22:20:14.599Z,74.14
2022-12-18T22:23:36.120Z,74.56
2022-12-18T22:27:02.134Z,74.94
2022-12-18T22:30:24.130Z,76.04
2022-12-18T22:33:45.835Z,76.86
2022-12-18T22:37:10.486Z,76.23
2022-12-18T22:40:32.099Z,76.89
2022-12-18T22:43:55.727Z,78.52
2022-12-18T22:47:17.335Z,78.65
2022-12-18T22:50:41.558Z,78.69
2022-12-18T22:54:03.203Z,79.78
2022-12-18T22:57:27.537Z,80.14
2022-12-18T23:00:49.060Z,80.03
2022-12-18T23:04:10.996Z,79.67
2022-12-18T23:07:32.516Z,79.83
2022-12-18T23:10:54.062Z,80.59
2022-12-18T23:14:15.816Z,80.23
2022-12-18T23:17:39.692Z,80.39
2022-12-18T23:21:21.994Z,80.00
2022-12-18T23:24:44.533Z,80.67
2022-12-18T23:28:06.389Z,80.60
2022-12-18T23:31:30.886Z,80.86
2022-12-18T23:34:52.710Z,81.19
2022-12-18T23:38:16.894Z,81.82
2022-12-18T23:41:40.931Z,80.93
2022-12-18T23:45:05.235Z,81.34
2022-12-18T23:48:42.229Z,81.94
2022-12-18T23:52:03.775Z,81.57
2022-12-18T23:55:25.305Z,81.70
2022-12-18T23:58:47.261Z,81.65
